Time;durP1;ratioP1;P1;durP2;ratioP2;P2;SDS_P1;SDS_P2;PMS_P1;PMS_P2;Temp;Humidity;BMP_temperature;BMP_pressure;BME280_temperature;BME280_humidity;BME280_pressure;Samples;Min_cycle;Max_cycle;Signal;HPM_P1;HPM_P2
2022/06/03 00:01:16;;;;;;;4.22;2.30;;;9.60;99.90;;;;;;5015103;28;20041;-77
2022/06/03 00:03:51;;;;;;;5.97;3.03;;;9.60;99.90;;;;;;5024976;28;20522;-78
2022/06/03 00:06:25;;;;;;;4.60;3.30;;;9.60;99.90;;;;;;5012491;28;20045;-78
2022/06/03 00:09:03;;;;;;;5.95;3.30;;;9.50;99.90;;;;;;5014414;28;20682;-78
2022/06/03 00:12:06;;;;;;;6.13;3.20;;;9.50;99.90;;;;;;5020816;28;20501;-78
2022/06/03 00:14:50;;;;;;;5.25;3.70;;;9.50;99.90;;;;;;5033932;28;20051;-77
2022/06/03 00:17:43;;;;;;;4.22;3.17;;;9.50;99.90;;;;;;5033387;28;20152;-78
2022/06/03 00:20:37;;;;;;;4.88;2.45;;;9.50;99.90;;;;;;5029565;28;20092;-78
2022/06/03 00:23:11;;;;;;;5.13;3.35;;;9.50;99.90;;;;;;5027543;28;20050;-78
2022/06/03 00:26:25;;;;;;;14.27;3.45;;;9.50;99.90;;;;;;5016828;28;20085;-77
2022/06/03 00:29:15;;;;;;;5.47;3.05;;;9.50;99.90;;;;;;4981159;28;20042;-78
2022/06/03 00:31:49;;;;;;;3.85;3.00;;;9.40;99.90;;;;;;5022754;28;20088;-78
2022/06/03 00:34:37;;;;;;;6.75;3.42;;;9.40;99.90;;;;;;5018636;28;20099;-78
2022/06/03 00:37:21;;;;;;;7.10;3.38;;;9.30;99.90;;;;;;5031895;28;20475;-78
2022/06/03 00:40:13;;;;;;;7.60;3.92;;;9.30;99.90;;;;;;5031737;28;20047;-78
2022/06/03 00:43:01;;;;;;;8.27;4.18;;;9.30;99.90;;;;;;5019058;28;20045;-78
2022/06/03 00:45:36;;;;;;;4.40;3.25;;;9.30;99.90;;;;;;5025387;28;20042;-78
2022/06/03 00:48:11;;;;;;;6.47;4.43;;;9.20;99.90;;;;;;4997388;28;20042;-78
2022/06/03 00:51:00;;;;;;;8.65;3.67;;;9.20;99.90;;;;;;5029279;28;20046;-78
2022/06/03 00:53:41;;;;;;;8.35;3.40;;;9.20;99.90;;;;;;5031396;28;20439;-78
2022/06/03 00:56:24;;;;;;;7.47;3.75;;;9.20;99.90;;;;;;5031251;28;21012;-78
2022/06/03 00:59:20;;;;;;;5.80;3.97;;;9.10;99.90;;;;;;5023630;28;20029;-78
2022/06/03 01:02:03;;;;;;;9.93;5.13;;;9.00;99.90;;;;;;5030510;28;20052;-78
2022/06/03 01:04:48;;;;;;;7.28;3.78;;;9.00;99.90;;;;;;5025055;28;20073;-78
2022/06/03 01:07:47;;;;;;;7.63;5.17;;;9.00;99.90;;;;;;5016759;28;20419;-78
2022/06/03 01:10:32;;;;;;;9.98;4.75;;;9.00;99.90;;;;;;5025590;28;20050;-78
2022/06/03 01:13:17;;;;;;;6.13;4.15;;;9.00;99.90;;;;;;5030775;28;20052;-78
2022/06/03 01:15:57;;;;;;;7.95;4.65;;;9.00;99.90;;;;;;5022318;28;20037;-78
2022/06/03 01:18:42;;;;;;;8.73;4.22;;;8.90;99.90;;;;;;5016352;28;20543;-78
2022/06/03 01:21:20;;;;;;;8.38;4.00;;;9.00;99.90;;;;;;5014433;28;20063;-78
2022/06/03 01:23:52;;;;;;;10.43;5.13;;;9.00;99.90;;;;;;5030616;28;20046;-78
2022/06/03 01:26:40;;;;;;;6.13;4.07;;;8.90;99.90;;;;;;5030396;28;20500;-78
2022/06/03 01:29:53;;;;;;;5.65;4.63;;;8.90;99.90;;;;;;5017269;28;20049;-78
2022/06/03 01:32:46;;;;;;;8.57;4.22;;;8.90;99.90;;;;;;4979913;28;20381;-78
2022/06/03 01:35:29;;;;;;;8.85;4.50;;;8.80;99.90;;;;;;5023032;28;20097;-78
2022/06/03 01:37:57;;;;;;;6.22;4.28;;;8.80;99.90;;;;;;5026501;28;20111;-78
2022/06/03 01:40:23;;;;;;;7.57;4.45;;;8.70;99.90;;;;;;5030305;28;20101;-78
2022/06/03 01:43:26;;;;;;;8.00;4.95;;;8.70;99.90;;;;;;4994406;28;20052;-78
2022/06/03 01:46:25;;;;;;;7.40;4.20;;;8.70;99.90;;;;;;4999936;28;20045;-78
2022/06/03 01:48:57;;;;;;;8.10;5.03;;;8.60;99.90;;;;;;5025751;28;20041;-78
2022/06/03 01:52:00;;;;;;;8.90;5.88;;;8.60;99.90;;;;;;5010357;28;20124;-78
2022/06/03 01:54:45;;;;;;;8.05;5.60;;;8.60;99.90;;;;;;5010429;28;20046;-78
2022/06/03 01:57:25;;;;;;;18.13;5.63;;;8.50;99.90;;;;;;5022561;28;20049;-78
2022/06/03 02:00:00;;;;;;;10.48;5.25;;;8.50;99.90;;;;;;5026320;28;20034;-78
2022/06/03 02:02:45;;;;;;;7.50;4.83;;;8.40;99.90;;;;;;5010058;28;20136;-78
2022/06/03 02:05:26;;;;;;;8.80;5.87;;;8.40;99.90;;;;;;5015851;28;20314;-78
2022/06/03 02:08:34;;;;;;;6.82;5.00;;;8.40;99.90;;;;;;5029216;28;20280;-78
2022/06/03 02:11:37;;;;;;;9.65;4.95;;;8.40;99.90;;;;;;5021872;28;20411;-78
2022/06/03 02:14:22;;;;;;;14.30;6.07;;;8.40;99.90;;;;;;5029984;28;20093;-78
2022/06/03 02:17:05;;;;;;;7.43;5.55;;;8.40;99.90;;;;;;5026126;28;20038;-78
2022/06/03 02:20:00;;;;;;;8.30;5.32;;;8.40;99.90;;;;;;5027166;28;20050;-78
2022/06/03 02:22:34;;;;;;;11.05;5.93;;;8.40;99.90;;;;;;5015692;28;20064;-78
2022/06/03 02:25:39;;;;;;;11.43;6.80;;;8.40;99.90;;;;;;5029387;28;20053;-78
2022/06/03 02:28:28;;;;;;;9.52;5.30;;;8.40;99.90;;;;;;5023722;28;20117;-78
2022/06/03 02:31:14;;;;;;;8.50;5.65;;;8.30;99.90;;;;;;5030103;28;20137;-78
2022/06/03 02:33:53;;;;;;;7.68;4.55;;;8.30;99.90;;;;;;5029953;28;20124;-78
2022/06/03 02:37:01;;;;;;;9.55;5.20;;;8.20;99.90;;;;;;5021756;28;20400;-78
2022/06/03 02:39:51;;;;;;;9.30;5.60;;;8.20;99.90;;;;;;5029376;28;20038;-79
2022/06/03 02:42:52;;;;;;;9.82;5.80;;;8.20;99.90;;;;;;5029769;28;20128;-79
2022/06/03 02:45:36;;;;;;;8.98;5.78;;;8.20;99.90;;;;;;5022955;28;20100;-78
2022/06/03 02:48:26;;;;;;;8.55;6.13;;;8.20;99.90;;;;;;5023058;28;20171;-78
2022/06/03 02:51:17;;;;;;;9.85;5.53;;;8.20;99.90;;;;;;5029711;28;20411;-79
2022/06/03 02:54:08;;;;;;;8.65;6.22;;;8.20;99.90;;;;;;5021326;28;20061;-78
2022/06/03 02:56:48;;;;;;;10.27;6.45;;;8.10;99.90;;;;;;5014357;28;20049;-78
2022/06/03 02:59:24;;;;;;;9.15;5.65;;;8.10;99.90;;;;;;5025081;28;20049;-79
2022/06/03 03:01:59;;;;;;;;;;;8.10;99.90;;;;;;5030026;28;20049;-78
2022/06/03 03:04:49;;;;;;;11.35;6.15;;;8.20;99.90;;;;;;5012739;28;19920;-78
2022/06/03 03:07:36;;;;;;;10.85;5.78;;;8.10;99.90;;;;;;5024856;28;20053;-78
2022/06/03 03:10:18;;;;;;;11.45;7.43;;;8.10;99.90;;;;;;5014203;28;20401;-79
2022/06/03 03:12:58;;;;;;;9.18;6.38;;;8.10;99.90;;;;;;5013595;28;20639;-78
2022/06/03 03:15:53;;;;;;;12.23;7.32;;;8.10;99.90;;;;;;5033035;28;20041;-78
2022/06/03 03:18:55;;;;;;;9.15;6.60;;;8.10;99.90;;;;;;5045306;28;20108;-78
2022/06/03 03:21:42;;;;;;;10.13;5.78;;;8.10;99.90;;;;;;5016547;28;20045;-78
2022/06/03 03:24:19;;;;;;;9.57;6.85;;;8.10;99.90;;;;;;5025681;28;20049;-78
2022/06/03 03:27:02;;;;;;;11.60;6.63;;;8.10;99.90;;;;;;5022065;28;20045;-78
2022/06/03 03:29:49;;;;;;;8.45;5.63;;;8.10;99.90;;;;;;5029432;28;20041;-78
2022/06/03 03:32:30;;;;;;;8.25;5.60;;;8.10;99.90;;;;;;5014220;28;20053;-78
2022/06/03 03:35:15;;;;;;;9.60;6.38;;;8.10;99.90;;;;;;5000093;28;20442;-78
2022/06/03 03:37:49;;;;;;;8.88;5.82;;;8.10;99.90;;;;;;5032996;28;20500;-79
2022/06/03 03:40:47;;;;;;;14.35;7.18;;;8.10;99.90;;;;;;5032818;28;20046;-79
2022/06/03 03:43:46;;;;;;;9.77;7.35;;;8.10;99.90;;;;;;5033143;28;20041;-79
2022/06/03 03:46:49;;;;;;;10.55;6.82;;;8.20;99.90;;;;;;5028245;28;20029;-79
2022/06/03 03:49:33;;;;;;;11.75;7.45;;;8.20;99.90;;;;;;5030797;28;20091;-78
2022/06/03 03:52:49;;;;;;;12.80;8.13;;;8.20;99.90;;;;;;5032459;28;20438;-79
2022/06/03 03:55:38;;;;;;;12.25;8.00;;;8.30;99.90;;;;;;5020500;28;20116;-79
2022/06/03 03:58:29;;;;;;;11.73;7.25;;;8.30;99.90;;;;;;5012915;28;20046;-79
2022/06/03 04:01:23;;;;;;;9.93;7.28;;;8.40;99.90;;;;;;5023912;28;20045;-79
2022/06/03 04:04:06;;;;;;;11.75;6.68;;;8.50;99.90;;;;;;5023447;28;20554;-78
2022/06/03 04:06:52;;;;;;;11.95;7.72;;;8.60;99.90;;;;;;5023832;28;20045;-79
2022/06/03 04:09:36;;;;;;;11.90;7.63;;;8.60;99.90;;;;;;5032352;28;20116;-79
2022/06/03 04:12:46;;;;;;;11.60;8.40;;;8.60;99.90;;;;;;5031927;28;20042;-79
2022/06/03 04:15:32;;;;;;;13.45;7.75;;;8.80;99.90;;;;;;5025143;28;20038;-79
2022/06/03 04:18:56;;;;;;;11.57;6.60;;;8.90;99.90;;;;;;5018815;28;20052;-79
2022/06/03 04:21:56;;;;;;;13.50;8.73;;;9.00;99.90;;;;;;4923951;29;20059;-79
2022/06/03 04:24:59;;;;;;;15.75;7.85;;;9.10;99.90;;;;;;5031629;28;20411;-79
2022/06/03 04:27:50;;;;;;;17.33;10.70;;;9.20;99.90;;;;;;5024374;28;20068;-79
2022/06/03 04:30:38;;;;;;;9.30;6.60;;;9.30;99.90;;;;;;4998711;28;20160;-79
2022/06/03 04:33:07;;;;;;;10.25;8.15;;;9.50;99.90;;;;;;5008410;28;20447;-79
2022/06/03 04:36:10;;;;;;;10.10;7.45;;;9.60;99.90;;;;;;5022605;28;20515;-79
2022/06/03 04:38:51;;;;;;;10.52;7.80;;;9.60;99.90;;;;;;5024930;28;20087;-79
2022/06/03 04:41:35;;;;;;;9.57;7.35;;;9.70;99.90;;;;;;5031568;28;20045;-78
2022/06/03 04:44:34;;;;;;;8.90;6.53;;;9.80;99.90;;;;;;5031870;28;20045;-79
2022/06/03 04:47:05;;;;;;;16.33;8.35;;;9.80;99.90;;;;;;5030473;28;20034;-79
2022/06/03 04:49:56;;;;;;;14.15;6.95;;;9.90;99.90;;;;;;5029950;28;20052;-78
2022/06/03 04:52:46;;;;;;;10.32;5.82;;;10.00;99.90;;;;;;5031134;28;20098;-79
2022/06/03 04:55:48;;;;;;;10.13;6.25;;;10.10;99.90;;;;;;5030950;28;20080;-79
2022/06/03 04:58:51;;;;;;;12.52;7.43;;;10.20;99.90;;;;;;5011673;28;20064;-79
2022/06/03 05:01:38;;;;;;;12.45;7.53;;;10.30;99.90;;;;;;5011478;28;20447;-79
2022/06/03 05:04:15;;;;;;;12.13;8.40;;;10.40;99.90;;;;;;5031185;28;20056;-81
2022/06/03 05:07:12;;;;;;;11.35;7.32;;;10.50;99.90;;;;;;5021767;28;20045;-80
2022/06/03 05:09:59;;;;;;;10.88;7.22;;;10.70;99.90;;;;;;5032189;28;20068;-79
2022/06/03 05:12:58;;;;;;;11.18;7.38;;;10.80;99.90;;;;;;5031971;28;20053;-81
2022/06/03 05:15:48;;;;;;;9.43;6.43;;;10.90;99.90;;;;;;5007529;28;20046;-80
2022/06/03 05:18:35;;;;;;;12.23;8.02;;;11.00;99.90;;;;;;5026370;28;20045;-80
2022/06/03 05:21:27;;;;;;;8.55;6.90;;;11.10;99.90;;;;;;5021036;28;20045;-80
2022/06/03 05:24:06;;;;;;;10.20;7.05;;;11.20;99.90;;;;;;5008725;28;20066;-79
2022/06/03 05:26:57;;;;;;;12.25;7.43;;;11.30;99.90;;;;;;5020649;28;20041;-80
2022/06/03 05:29:41;;;;;;;11.32;6.05;;;11.40;99.90;;;;;;5011924;28;20038;-80
2022/06/03 05:32:25;;;;;;;12.32;7.47;;;11.40;99.90;;;;;;5012484;28;20099;-80
2022/06/03 05:35:22;;;;;;;12.95;7.35;;;11.60;99.90;;;;;;5014910;28;20050;-80
2022/06/03 05:38:28;;;;;;;8.30;6.45;;;11.60;99.90;;;;;;5027897;28;20037;-80
2022/06/03 05:44:26;;;;;;;9.35;6.93;;;11.90;99.90;;;;;;5031679;28;20404;-81
2022/06/03 05:47:01;;;;;;;9.82;7.15;;;12.00;99.90;;;;;;5031361;28;20037;-81
2022/06/03 05:49:56;;;;;;;10.88;6.55;;;12.10;99.90;;;;;;5031588;28;20121;-80
2022/06/03 05:52:36;;;;;;;9.00;6.40;;;12.30;99.90;;;;;;5030820;28;20048;-81
2022/06/03 05:55:28;;;;;;;11.38;6.50;;;12.40;99.90;;;;;;5030754;28;20033;-80
2022/06/03 05:58:13;;;;;;;9.65;5.90;;;12.50;99.90;;;;;;4976114;28;20049;-80
2022/06/03 06:00:51;;;;;;;12.63;6.75;;;12.60;99.90;;;;;;5011257;28;20493;-80
2022/06/03 06:03:25;;;;;;;7.55;5.25;;;12.70;99.90;;;;;;5011779;28;20052;-80
2022/06/03 06:06:09;;;;;;;7.75;4.85;;;12.80;99.90;;;;;;5010850;28;20045;-80
2022/06/03 06:09:10;;;;;;;7.07;4.57;;;12.90;99.90;;;;;;5007396;28;20045;-80
2022/06/03 06:11:45;;;;;;;9.85;4.45;;;12.90;99.90;;;;;;5006803;28;20060;-80
2022/06/03 06:14:20;;;;;;;6.15;4.88;;;13.10;99.90;;;;;;5028041;28;20091;-80
2022/06/03 06:16:46;;;;;;;9.05;4.93;;;13.10;99.90;;;;;;5032302;28;20412;-80
2022/06/03 06:19:50;;;;;;;5.53;4.43;;;13.20;99.90;;;;;;5018361;28;20445;-80
2022/06/03 06:22:26;;;;;;;5.65;3.63;;;13.40;99.90;;;;;;5015113;28;20386;-80
2022/06/03 06:25:13;;;;;;;6.20;3.60;;;13.50;99.90;;;;;;5032789;28;20033;-80
2022/06/03 06:27:54;;;;;;;5.93;3.92;;;13.70;99.90;;;;;;5024518;28;20353;-80
2022/06/03 06:30:42;;;;;;;6.68;4.43;;;14.00;99.90;;;;;;5014207;28;20050;-80
2022/06/03 06:33:39;;;;;;;15.13;5.32;;;14.40;99.90;;;;;;5012104;28;20092;-80
2022/06/03 06:36:32;;;;;;;3.28;2.95;;;14.70;99.90;;;;;;5025818;28;20048;-80
2022/06/03 06:39:20;;;;;;;5.00;2.83;;;15.00;99.90;;;;;;5033086;28;20052;-80
2022/06/03 06:41:54;;;;;;;3.53;2.83;;;15.20;99.90;;;;;;5029128;28;20042;-80
2022/06/03 06:44:32;;;;;;;5.18;3.10;;;15.40;99.90;;;;;;5010092;28;20048;-80
2022/06/03 06:47:10;;;;;;;5.93;3.17;;;15.50;99.90;;;;;;5033243;28;20052;-79
2022/06/03 06:49:41;;;;;;;3.25;2.38;;;15.70;99.90;;;;;;5020663;28;20076;-79
2022/06/03 06:52:21;;;;;;;5.18;2.05;;;15.90;99.90;;;;;;5017135;28;20052;-79
2022/06/03 06:54:56;;;;;;;3.47;2.22;;;16.10;99.90;;;;;;5026384;28;20415;-79
2022/06/03 06:57:31;;;;;;;2.70;1.75;;;16.30;99.90;;;;;;5025652;28;20030;-79
2022/06/03 07:00:24;;;;;;;2.58;1.70;;;16.50;99.90;;;;;;5017373;28;20200;-79
2022/06/03 07:03:41;;;;;;;3.38;1.33;;;16.50;99.90;;;;;;5037494;28;20048;-78
2022/06/03 07:06:13;;;;;;;;;;;16.60;99.90;;;;;;5001062;28;20635;-79
2022/06/03 07:08:44;;;;;;;3.70;2.45;;;16.80;99.90;;;;;;5035301;28;19924;-79
2022/06/03 07:11:36;;;;;;;4.15;3.10;;;17.20;99.90;;;;;;5016620;28;20042;-79
2022/06/03 07:14:11;;;;;;;4.90;2.30;;;17.30;99.90;;;;;;5032568;28;20125;-79
2022/06/03 07:19:47;;;;;;;4.38;1.38;;;17.70;99.90;;;;;;5023447;28;20428;-79
2022/06/03 07:22:50;;;;;;;3.50;2.47;;;17.80;99.40;;;;;;5019687;28;20042;-79
2022/06/03 07:25:18;;;;;;;6.07;2.55;;;17.80;97.20;;;;;;5028681;28;20079;-79
2022/06/03 07:27:44;;;;;;;56.17;36.22;;;17.90;97.80;;;;;;5007833;28;20133;-78
2022/06/03 07:30:25;;;;;;;29.25;17.08;;;17.90;97.00;;;;;;5010880;28;20143;-78
2022/06/03 07:33:01;;;;;;;23.27;16.90;;;18.00;96.80;;;;;;5017216;28;20495;-79
2022/06/03 07:35:37;;;;;;;4.28;2.00;;;18.10;95.50;;;;;;5016737;28;20124;-79
2022/06/03 07:38:15;;;;;;;4.07;1.90;;;18.20;96.70;;;;;;5034310;28;20407;-79
2022/06/03 07:40:52;;;;;;;2.25;1.00;;;18.30;95.40;;;;;;5033493;28;20112;-79
2022/06/03 07:43:36;;;;;;;9.63;1.60;;;18.40;93.60;;;;;;5032836;28;20099;-79
2022/06/03 07:46:10;;;;;;;2.60;1.73;;;18.40;94.20;;;;;;5019099;28;20033;-79
2022/06/03 07:48:36;;;;;;;1.75;1.02;;;18.40;94.20;;;;;;5032799;28;20053;-79
2022/06/03 07:51:33;;;;;;;5.38;1.98;;;18.50;94.70;;;;;;5016074;28;20049;-79
2022/06/03 07:54:05;;;;;;;4.85;1.73;;;18.60;93.50;;;;;;5032513;28;20393;-78
2022/06/03 07:56:33;;;;;;;2.53;1.02;;;18.80;93.90;;;;;;5032235;28;20365;-78
2022/06/03 07:59:02;;;;;;;4.28;1.60;;;18.90;94.30;;;;;;5011748;28;20061;-78
2022/06/03 08:01:42;;;;;;;3.35;1.88;;;18.90;94.20;;;;;;5024413;28;20404;-78
2022/06/03 08:04:12;;;;;;;1.88;1.13;;;19.00;91.70;;;;;;5027248;28;20133;-78
2022/06/03 08:12:12;;;;;;;59.88;38.28;;;19.60;92.20;;;;;;5022716;28;20476;-78
2022/06/03 08:14:37;;;;;;;72.03;45.65;;;19.80;91.60;;;;;;5019554;28;20060;-78
2022/06/03 08:17:06;;;;;;;23.85;16.67;;;19.90;90.90;;;;;;5022232;28;20033;-78
2022/06/03 08:19:35;;;;;;;53.20;37.03;;;19.90;90.70;;;;;;5023703;28;20511;-78
2022/06/03 08:22:03;;;;;;;64.78;58.17;;;19.80;89.70;;;;;;5024367;28;20048;-78
2022/06/03 08:24:40;;;;;;;4.68;2.20;;;19.90;90.30;;;;;;5023772;28;20049;-78
2022/06/03 08:27:11;;;;;;;3.45;1.63;;;20.10;90.00;;;;;;5012691;28;20443;-78
2022/06/03 08:29:45;;;;;;;3.47;1.10;;;20.30;88.80;;;;;;5025569;28;20397;-78
2022/06/03 08:32:43;;;;;;;1.90;1.13;;;20.40;90.00;;;;;;5030986;28;20073;-78
2022/06/03 08:35:19;;;;;;;3.45;2.28;;;20.60;84.70;;;;;;5031926;28;20127;-78
2022/06/03 08:37:56;;;;;;;3.10;1.80;;;20.60;86.20;;;;;;5031667;28;20408;-78
2022/06/03 08:40:49;;;;;;;2.88;1.50;;;20.50;83.90;;;;;;5031814;28;20107;-78
2022/06/03 08:43:32;;;;;;;5.03;1.25;;;20.50;83.70;;;;;;5031882;28;20056;-78
2022/06/03 08:46:14;;;;;;;2.70;1.40;;;20.50;82.80;;;;;;5032063;28;20528;-78
2022/06/03 08:48:42;;;;;;;3.03;1.65;;;20.70;84.60;;;;;;5032006;28;20045;-78
2022/06/03 08:51:23;;;;;;;3.30;1.75;;;20.80;83.50;;;;;;5031027;28;20045;-79
2022/06/03 08:53:55;;;;;;;2.65;2.08;;;20.90;83.10;;;;;;5031508;28;20439;-79
2022/06/03 08:56:24;;;;;;;2.75;1.50;;;21.10;82.00;;;;;;5031796;28;20090;-79
2022/06/03 08:58:56;;;;;;;2.25;1.95;;;21.30;82.90;;;;;;5031974;28;20412;-78
2022/06/03 09:01:34;;;;;;;2.70;2.15;;;21.30;80.10;;;;;;5031649;28;20384;-79
2022/06/03 09:04:14;;;;;;;4.68;1.85;;;21.30;79.20;;;;;;5031926;28;20068;-79
2022/06/03 09:07:13;;;;;;;3.75;1.90;;;21.30;83.00;;;;;;5034004;28;20049;-80
2022/06/03 09:12:29;;;;;;;2.85;1.48;;;21.60;79.90;;;;;;5073581;22;20495;-79
2022/06/03 09:15:28;;;;;;;2.63;1.50;;;21.80;80.20;;;;;;5055169;28;20044;-79
2022/06/03 09:18:23;;;;;;;2.58;1.77;;;22.00;74.50;;;;;;5054770;28;20359;-79
2022/06/03 09:21:31;;;;;;;4.30;2.15;;;22.00;79.70;;;;;;5054557;28;20055;-79
2022/06/03 09:24:21;;;;;;;3.03;1.73;;;22.10;75.70;;;;;;5054664;28;20118;-78
2022/06/03 09:26:57;;;;;;;2.22;1.80;;;21.90;74.70;;;;;;5053610;28;20055;-79
2022/06/03 09:29:30;;;;;;;3.25;1.75;;;22.00;76.30;;;;;;5053071;28;20100;-78
2022/06/03 09:32:28;;;;;;;4.55;1.95;;;22.20;75.40;;;;;;5053493;28;20037;-78
2022/06/03 09:35:01;;;;;;;2.55;1.80;;;22.20;73.50;;;;;;5053945;28;20044;-79
2022/06/03 09:37:41;;;;;;;1.70;1.30;;;22.50;75.40;;;;;;5035980;28;20430;-79
2022/06/03 09:40:46;;;;;;;2.67;1.20;;;22.60;72.00;;;;;;5037233;28;20032;-79
2022/06/03 09:43:20;;;;;;;2.77;0.80;;;22.40;67.70;;;;;;5047745;28;20048;-79
2022/06/03 09:45:49;;;;;;;3.28;1.60;;;22.30;71.70;;;;;;5053804;28;20119;-79
2022/06/03 09:48:22;;;;;;;2.85;1.23;;;22.40;73.00;;;;;;5050668;28;20395;-78
2022/06/03 09:50:50;;;;;;;1.63;0.73;;;22.50;73.00;;;;;;5051422;28;20154;-78
2022/06/03 09:53:19;;;;;;;2.00;0.88;;;22.60;71.00;;;;;;5045099;28;20037;-79
2022/06/03 09:55:52;;;;;;;4.30;1.35;;;22.50;69.60;;;;;;5053641;28;20033;-78
2022/06/03 09:58:22;;;;;;;2.70;1.23;;;22.50;70.10;;;;;;5053717;28;20044;-79
2022/06/03 10:00:51;;;;;;;1.60;0.93;;;22.60;71.50;;;;;;5053343;28;20048;-79
2022/06/03 10:03:18;;;;;;;2.47;1.10;;;22.70;69.90;;;;;;5049606;28;20064;-78
2022/06/03 10:05:49;;;;;;;3.42;0.70;;;22.90;71.30;;;;;;5049654;28;20041;-79
2022/06/03 10:08:18;;;;;;;2.17;0.95;;;23.00;67.50;;;;;;5034021;28;20397;-79
2022/06/03 10:13:33;;;;;;;1.42;0.50;;;23.10;68.30;;;;;;5041505;28;20415;-79
2022/06/03 10:16:00;;;;;;;2.05;1.17;;;23.20;67.00;;;;;;5038231;28;20040;-79
2022/06/03 10:18:49;;;;;;;4.03;1.48;;;23.20;66.00;;;;;;5041394;28;20481;-79
2022/06/03 10:21:15;;;;;;;1.35;0.70;;;23.30;66.20;;;;;;5046740;28;20045;-79
2022/06/03 10:23:56;;;;;;;2.72;0.95;;;23.20;66.40;;;;;;5044952;28;20051;-79
2022/06/03 10:26:49;;;;;;;1.92;0.85;;;23.30;65.90;;;;;;5052266;28;20049;-79
2022/06/03 10:29:18;;;;;;;3.35;1.30;;;23.30;67.20;;;;;;5041975;28;20033;-79
2022/06/03 10:31:48;;;;;;;3.63;0.93;;;23.60;65.30;;;;;;5034297;28;20115;-79
2022/06/03 10:34:21;;;;;;;3.17;1.50;;;23.80;63.80;;;;;;5050198;28;20117;-79
2022/06/03 10:36:49;;;;;;;2.40;0.88;;;23.90;62.10;;;;;;5049403;28;20032;-79
2022/06/03 10:39:17;;;;;;;1.48;0.73;;;23.70;62.60;;;;;;5042271;28;20037;-79
2022/06/03 10:41:51;;;;;;;2.25;0.93;;;23.70;64.10;;;;;;5052774;28;20044;-79
2022/06/03 10:44:19;;;;;;;2.00;0.73;;;23.80;64.90;;;;;;5053338;28;20051;-79
2022/06/03 10:46:58;;;;;;;1.48;0.82;;;24.00;63.90;;;;;;5051977;28;20483;-79
2022/06/03 10:49:27;;;;;;;3.28;1.40;;;24.40;63.30;;;;;;5041571;28;20041;-79
2022/06/03 11:02:58;;;;;;;2.17;0.70;;;24.10;61.10;;;;;;5032949;28;20049;-79
2022/06/03 11:05:31;;;;;;;2.72;0.90;;;24.10;61.40;;;;;;5040206;28;20037;-78
2022/06/03 11:08:08;;;;;;;2.45;0.77;;;24.30;62.00;;;;;;5041688;28;20033;-79
2022/06/03 11:10:43;;;;;;;3.33;1.02;;;24.50;61.00;;;;;;5038738;28;20407;-79
2022/06/03 11:13:11;;;;;;;2.20;0.90;;;24.60;60.60;;;;;;5052541;28;20088;-79
2022/06/03 11:15:41;;;;;;;3.17;0.70;;;24.80;60.70;;;;;;5048912;28;20048;-80
2022/06/03 11:18:15;;;;;;;2.42;0.65;;;24.80;59.90;;;;;;5052251;28;20422;-79
2022/06/03 11:20:42;;;;;;;1.05;0.65;;;24.90;58.60;;;;;;5044748;28;20045;-79
2022/06/03 11:23:10;;;;;;;2.67;1.08;;;25.00;58.20;;;;;;5052664;28;20120;-80
2022/06/03 11:26:08;;;;;;;2.88;0.98;;;24.80;59.90;;;;;;5055787;28;20568;-80
2022/06/03 11:28:42;;;;;;;3.13;1.40;;;24.80;62.10;;;;;;4998632;28;20049;-79
2022/06/03 11:31:11;;;;;;;2.92;1.70;;;24.90;60.10;;;;;;5055969;28;20070;-79
2022/06/03 11:33:55;;;;;;;2.65;0.85;;;24.70;59.70;;;;;;5052272;28;20514;-79
2022/06/03 11:37:02;;;;;;;3.40;1.17;;;24.40;60.00;;;;;;5053020;28;20036;-80
2022/06/03 11:39:37;;;;;;;2.85;0.70;;;24.90;58.70;;;;;;5036550;28;20072;-79
2022/06/03 11:42:16;;;;;;;1.50;0.60;;;25.40;59.90;;;;;;5052939;28;20052;-80
2022/06/03 11:44:48;;;;;;;2.03;0.95;;;25.00;56.70;;;;;;5052910;28;20068;-80
2022/06/03 11:47:22;;;;;;;1.10;0.63;;;24.70;58.90;;;;;;5036172;28;20044;-79
2022/06/03 11:49:49;;;;;;;2.33;0.80;;;24.60;59.60;;;;;;5048793;28;20094;-79
2022/06/03 11:52:16;;;;;;;1.67;0.63;;;24.30;59.30;;;;;;5050855;28;20044;-79
2022/06/03 11:54:41;;;;;;;1.90;0.70;;;24.00;60.10;;;;;;5038944;28;20040;-79
2022/06/03 11:57:08;;;;;;;1.73;0.52;;;24.20;60.00;;;;;;5055676;28;20037;-79
2022/06/03 11:59:52;;;;;;;1.42;0.60;;;24.60;58.90;;;;;;5052972;28;20074;-79
2022/06/03 12:02:53;;;;;;;2.55;0.73;;;24.80;58.50;;;;;;5047599;28;20037;-79
2022/06/03 12:05:24;;;;;;;1.92;0.60;;;25.20;57.90;;;;;;5040430;28;20044;-79
2022/06/03 12:07:56;;;;;;;2.40;0.52;;;25.40;58.10;;;;;;5054951;28;20054;-80
2022/06/03 12:10:42;;;;;;;1.75;0.60;;;25.10;56.90;;;;;;5046920;28;20047;-80
2022/06/03 12:13:27;;;;;;;1.52;0.40;;;24.70;56.90;;;;;;5055815;28;20036;-79
2022/06/03 12:15:58;;;;;;;1.33;0.40;;;24.60;57.20;;;;;;5055414;28;20143;-79
2022/06/03 12:18:34;;;;;;;3.50;0.70;;;25.10;59.50;;;;;;5055719;28;20044;-79
2022/06/03 12:21:04;;;;;;;3.95;0.75;;;25.40;56.70;;;;;;5055636;28;20510;-80
2022/06/03 12:23:36;;;;;;;2.13;0.80;;;25.60;56.40;;;;;;5055112;28;20170;-80
2022/06/03 12:26:29;;;;;;;0.50;0.30;;;25.80;55.80;;;;;;5055108;28;20052;-80
2022/06/03 12:29:07;;;;;;;2.33;0.88;;;25.70;57.10;;;;;;5051519;28;20048;-79
2022/06/03 12:31:42;;;;;;;4.35;0.60;;;25.80;55.30;;;;;;5051873;28;20101;-79
2022/06/03 12:34:24;;;;;;;0.90;0.50;;;26.10;56.30;;;;;;5052735;28;20049;-80
2022/06/03 12:37:00;;;;;;;1.35;0.60;;;26.50;55.80;;;;;;5052356;28;20041;-80
2022/06/03 12:39:28;;;;;;;1.30;0.60;;;26.80;53.10;;;;;;5053050;28;20120;-80
2022/06/03 12:42:02;;;;;;;3.33;0.68;;;26.80;54.30;;;;;;5050829;28;20418;-80
2022/06/03 12:44:46;;;;;;;0.85;0.32;;;26.90;51.90;;;;;;5052609;28;20044;-80
2022/06/03 12:47:18;;;;;;;0.90;0.30;;;26.90;53.20;;;;;;5035022;28;20033;-80
2022/06/03 12:49:43;;;;;;;0.95;0.43;;;26.80;53.90;;;;;;5053724;28;20096;-80
2022/06/03 12:52:29;;;;;;;0.82;0.47;;;26.90;53.60;;;;;;5052241;28;20125;-80
2022/06/03 12:55:02;;;;;;;2.15;0.50;;;26.90;52.90;;;;;;5052107;28;20373;-80
2022/06/03 12:57:37;;;;;;;1.13;0.40;;;27.00;54.10;;;;;;5052495;28;20515;-80
2022/06/03 13:00:17;;;;;;;1.25;0.30;;;27.30;51.80;;;;;;5062179;22;20037;-80
2022/06/03 13:03:13;;;;;;;1.75;0.50;;;27.50;51.80;;;;;;5072233;28;20040;-79
2022/06/03 13:05:44;;;;;;;1.15;0.52;;;27.50;51.70;;;;;;5066566;28;20041;-80
2022/06/03 13:08:34;;;;;;;2.17;0.50;;;27.20;51.80;;;;;;5054935;28;20041;-80
2022/06/03 13:11:22;;;;;;;2.95;0.80;;;27.30;50.80;;;;;;5072400;28;20044;-80
2022/06/03 13:13:49;;;;;;;1.40;0.50;;;27.10;50.20;;;;;;5072598;28;20083;-80
2022/06/03 13:16:31;;;;;;;1.27;0.40;;;26.90;52.30;;;;;;5072993;28;20048;-81
2022/06/03 13:19:01;;;;;;;1.50;0.35;;;27.20;51.60;;;;;;5072163;28;20119;-80
2022/06/03 13:21:57;;;;;;;1.00;0.40;;;27.20;52.50;;;;;;5073695;28;20044;-79
2022/06/03 13:24:31;;;;;;;2.15;0.30;;;26.90;49.40;;;;;;5057404;28;20088;-79
2022/06/03 13:27:23;;;;;;;1.20;0.50;;;26.90;52.80;;;;;;5039776;28;20044;-80
2022/06/03 13:29:49;;;;;;;2.42;0.25;;;27.20;50.30;;;;;;5047707;28;20041;-80
2022/06/03 13:32:17;;;;;;;2.25;0.30;;;27.20;51.80;;;;;;5044862;28;20427;-79
2022/06/03 13:34:43;;;;;;;1.48;0.32;;;27.20;50.30;;;;;;5060758;28;20052;-80
2022/06/03 13:37:21;;;;;;;1.85;0.35;;;27.20;51.00;;;;;;5041837;28;20029;-80
2022/06/03 13:39:50;;;;;;;2.58;0.65;;;27.00;48.90;;;;;;5033487;28;20053;-80
2022/06/03 13:45:02;;;;;;;0.88;0.30;;;26.90;51.70;;;;;;5060113;28;20048;-80
2022/06/03 13:47:33;;;;;;;3.42;1.38;;;27.30;51.50;;;;;;5060762;28;20048;-80
2022/06/03 13:50:14;;;;;;;0.75;0.28;;;27.70;51.10;;;;;;5046303;28;20048;-80
2022/06/03 13:53:08;;;;;;;0.52;0.40;;;28.20;49.70;;;;;;5059802;28;20053;-80
2022/06/03 13:55:51;;;;;;;0.90;0.20;;;28.20;48.60;;;;;;5051343;28;20102;-80
2022/06/03 13:58:31;;;;;;;0.88;0.28;;;28.60;49.60;;;;;;5051994;28;20037;-80
2022/06/03 14:01:05;;;;;;;2.17;0.40;;;28.70;48.70;;;;;;5052004;28;20446;-80
2022/06/03 14:03:48;;;;;;;1.95;0.30;;;28.10;48.80;;;;;;5053847;28;20045;-80
2022/06/03 14:06:27;;;;;;;0.85;0.28;;;27.40;49.50;;;;;;5053826;28;20045;-80
2022/06/03 14:09:09;;;;;;;0.95;0.30;;;27.00;50.90;;;;;;5050146;28;20045;-80
2022/06/03 14:11:40;;;;;;;2.38;1.20;;;27.40;50.00;;;;;;5073657;28;20045;-80
2022/06/03 14:14:26;;;;;;;1.50;0.30;;;27.70;50.00;;;;;;5064803;28;20045;-80
2022/06/03 14:16:58;;;;;;;2.60;0.60;;;27.90;49.30;;;;;;5057639;28;20072;-80
2022/06/03 14:19:44;;;;;;;2.03;0.50;;;28.30;50.30;;;;;;5054895;28;20119;-80
2022/06/03 14:22:35;;;;;;;1.88;0.40;;;28.60;47.90;;;;;;5059383;28;20038;-80
2022/06/03 14:25:05;;;;;;;1.30;0.30;;;28.80;48.30;;;;;;5045236;28;20045;-80
2022/06/03 14:27:51;;;;;;;1.75;0.20;;;28.80;49.20;;;;;;5055757;28;20044;-80
2022/06/03 14:30:45;;;;;;;1.77;0.55;;;28.60;48.30;;;;;;5061476;28;20136;-80
2022/06/03 14:33:13;;;;;;;1.58;0.35;;;28.00;48.50;;;;;;5055729;28;20041;-80
2022/06/03 14:35:43;;;;;;;1.63;0.52;;;27.50;50.20;;;;;;5056364;28;20130;-80